Time;durP1;ratioP1;P1;durP2;ratioP2;P2;SDS_P1;SDS_P2;PMS_P1;PMS_P2;Temp;Humidity;BMP_temperature;BMP_pressure;BME280_temperature;BME280_humidity;BME280_pressure;Samples;Min_cycle;Max_cycle;Signal;HPM_P1;HPM_P2
2023/08/04 00:00:29;;;;;;;5.10;1.90;;;44.00;27.10;;;;;;5059265;28;20058;-63
2023/08/04 00:02:56;;;;;;;5.47;1.90;;;43.90;27.20;;;;;;5060480;28;20145;-64
2023/08/04 00:05:23;;;;;;;7.32;1.92;;;43.90;27.20;;;;;;5063698;28;20137;-62
2023/08/04 00:07:49;;;;;;;9.73;2.20;;;43.90;27.20;;;;;;5056841;28;20795;-64
2023/08/04 00:10:16;;;;;;;8.88;2.20;;;43.80;27.50;;;;;;5055136;28;20075;-63
2023/08/04 00:12:43;;;;;;;13.52;2.45;;;43.60;27.00;;;;;;5061159;28;20057;-62
2023/08/04 00:15:09;;;;;;;7.55;2.08;;;43.50;26.90;;;;;;5058128;28;20095;-64
2023/08/04 00:17:38;;;;;;;7.53;1.80;;;43.50;27.50;;;;;;5057519;28;20046;-61
2023/08/04 00:20:10;;;;;;;12.13;2.05;;;43.50;27.80;;;;;;5057016;28;20054;-64
2023/08/04 00:22:37;;;;;;;6.63;1.80;;;43.40;27.10;;;;;;5059234;28;20132;-65
2023/08/04 00:25:04;;;;;;;7.25;1.67;;;43.30;27.70;;;;;;5058639;28;20117;-64
2023/08/04 00:27:31;;;;;;;18.20;3.65;;;43.10;27.60;;;;;;5052588;28;20061;-63
2023/08/04 00:29:57;;;;;;;23.05;3.88;;;43.00;24.70;;;;;;5056947;28;20054;-63
2023/08/04 00:32:23;;;;;;;12.63;3.83;;;42.90;23.70;;;;;;5055250;28;20053;-63
2023/08/04 00:34:50;;;;;;;27.73;4.97;;;42.70;22.70;;;;;;5055416;28;20138;-62
2023/08/04 00:37:16;;;;;;;36.58;4.70;;;42.70;22.60;;;;;;5054093;28;20044;-64
2023/08/04 00:39:43;;;;;;;21.27;3.92;;;42.60;23.80;;;;;;5052639;28;20062;-64
2023/08/04 00:42:09;;;;;;;29.67;5.38;;;42.50;23.50;;;;;;5050629;28;20521;-62
2023/08/04 00:44:36;;;;;;;31.92;4.20;;;42.50;23.50;;;;;;5051722;28;20101;-64
2023/08/04 00:47:03;;;;;;;19.27;3.88;;;42.50;24.10;;;;;;5055726;28;20551;-63
2023/08/04 00:49:30;;;;;;;12.52;3.20;;;42.40;24.80;;;;;;5056026;28;20057;-64
2023/08/04 00:51:57;;;;;;;16.27;3.83;;;42.20;24.60;;;;;;5053758;28;20067;-65
2023/08/04 00:54:23;;;;;;;94.00;7.50;;;42.20;24.90;;;;;;5051141;28;20059;-62
2023/08/04 00:56:52;;;;;;;33.13;4.82;;;42.20;25.20;;;;;;5051991;28;20093;-63
2023/08/04 00:59:18;;;;;;;17.15;4.28;;;42.10;25.60;;;;;;5051674;28;20137;-65
2023/08/04 01:01:46;;;;;;;19.10;4.22;;;42.00;24.00;;;;;;5052089;28;20059;-66
2023/08/04 01:04:13;;;;;;;34.60;4.70;;;41.90;24.70;;;;;;5054025;28;20054;-65
2023/08/04 01:07:05;;;;;;;30.40;4.50;;;41.80;24.00;;;;;;5052843;28;20052;-63
2023/08/04 01:09:50;;;;;;;64.22;7.60;;;41.70;23.80;;;;;;5050572;28;20093;-63
2023/08/04 01:12:35;;;;;;;58.58;6.00;;;41.50;23.70;;;;;;5052439;28;20056;-59
2023/08/04 01:15:04;;;;;;;27.55;4.88;;;41.40;23.60;;;;;;5052792;28;20056;-62
2023/08/04 01:17:32;;;;;;;21.50;4.35;;;41.40;24.20;;;;;;5054467;28;20591;-59
2023/08/04 01:19:58;;;;;;;20.02;4.47;;;41.40;23.50;;;;;;5057745;28;20404;-60
2023/08/04 01:22:26;;;;;;;24.67;4.22;;;41.40;23.30;;;;;;5055529;28;20055;-62
2023/08/04 01:24:54;;;;;;;31.63;4.82;;;41.40;23.20;;;;;;5056453;28;20056;-59
2023/08/04 01:27:43;;;;;;;25.70;3.90;;;41.30;22.50;;;;;;5054336;28;20658;-57
2023/08/04 01:30:36;;;;;;;19.67;3.60;;;41.40;23.20;;;;;;5055976;28;20703;-60
2023/08/04 01:33:03;;;;;;;20.10;3.47;;;41.30;23.90;;;;;;5056064;28;20064;-61
2023/08/04 01:35:30;;;;;;;21.83;3.60;;;41.20;22.90;;;;;;5056132;28;20497;-59
2023/08/04 01:37:56;;;;;;;18.67;3.30;;;41.20;23.60;;;;;;5057497;28;20093;-63
2023/08/04 01:40:23;;;;;;;17.98;3.15;;;41.20;22.10;;;;;;5058061;28;20145;-61
2023/08/04 01:42:49;;;;;;;15.23;3.20;;;41.10;22.00;;;;;;5055087;28;20054;-60
2023/08/04 01:45:16;;;;;;;15.40;3.38;;;41.30;22.20;;;;;;5057951;28;20046;-62
2023/08/04 01:47:44;;;;;;;15.98;3.10;;;41.90;21.60;;;;;;5054681;28;20425;-60
2023/08/04 01:50:11;;;;;;;14.57;3.10;;;42.50;21.20;;;;;;5053487;28;20163;-61
2023/08/04 01:52:37;;;;;;;15.10;3.05;;;42.20;20.50;;;;;;5049910;28;20104;-57
2023/08/04 01:55:04;;;;;;;6.75;1.80;;;41.90;16.60;;;;;;5049580;28;20057;-61
2023/08/04 01:57:31;;;;;;;7.57;1.88;;;41.80;16.10;;;;;;5051030;28;20053;-60
2023/08/04 01:59:57;;;;;;;8.77;1.67;;;41.90;16.30;;;;;;5059401;28;20046;-58
2023/08/04 02:02:24;;;;;;;11.38;1.88;;;42.30;16.10;;;;;;5054682;28;20099;-61
2023/08/04 02:04:50;;;;;;;12.98;2.60;;;42.40;16.40;;;;;;5059937;28;20112;-61
2023/08/04 02:07:16;;;;;;;18.52;2.67;;;41.90;17.30;;;;;;5057187;28;20081;-57
2023/08/04 02:09:43;;;;;;;9.13;2.20;;;41.30;17.80;;;;;;5059818;28;20614;-59
2023/08/04 02:12:09;;;;;;;15.82;2.47;;;40.90;18.30;;;;;;5055790;28;20059;-58
2023/08/04 02:14:36;;;;;;;11.40;2.13;;;40.50;17.70;;;;;;5050593;28;20529;-57
2023/08/04 02:17:02;;;;;;;7.82;2.40;;;40.20;17.90;;;;;;5053673;28;20422;-60
2023/08/04 02:19:29;;;;;;;17.15;2.60;;;39.90;18.00;;;;;;5053899;28;20077;-58
2023/08/04 02:21:55;;;;;;;10.55;2.40;;;39.80;18.10;;;;;;5050928;28;20528;-64
2023/08/04 02:24:22;;;;;;;11.15;2.28;;;39.60;18.40;;;;;;5053885;28;20527;-61
2023/08/04 02:26:49;;;;;;;16.55;2.60;;;39.50;18.50;;;;;;5052461;28;20060;-61
2023/08/04 02:29:16;;;;;;;15.00;2.08;;;39.30;19.30;;;;;;5055121;28;20070;-60
2023/08/04 02:31:42;;;;;;;15.80;2.60;;;39.20;19.20;;;;;;5053637;28;20546;-62
2023/08/04 02:34:08;;;;;;;21.05;2.58;;;39.10;19.20;;;;;;5052465;28;20070;-60
2023/08/04 02:36:35;;;;;;;15.98;2.88;;;38.90;19.60;;;;;;5053646;28;20565;-66
2023/08/04 02:39:02;;;;;;;22.63;2.78;;;38.80;19.50;;;;;;5053447;28;20075;-59
2023/08/04 02:41:28;;;;;;;28.90;3.65;;;38.70;19.90;;;;;;5054655;28;20071;-62
2023/08/04 02:43:55;;;;;;;24.02;3.70;;;38.60;19.90;;;;;;5049676;28;20131;-59
2023/08/04 02:46:24;;;;;;;19.52;3.17;;;38.50;20.10;;;;;;5049971;28;20073;-60
2023/08/04 02:48:50;;;;;;;52.13;4.68;;;38.40;20.10;;;;;;5049990;28;20075;-62
2023/08/04 02:51:16;;;;;;;72.72;6.32;;;38.20;20.90;;;;;;5048873;28;20074;-60
2023/08/04 02:53:45;;;;;;;18.38;2.70;;;38.10;20.60;;;;;;5050661;28;20086;-59
2023/08/04 02:56:14;;;;;;;25.50;3.47;;;38.00;20.80;;;;;;5048802;28;20574;-64
2023/08/04 02:58:44;;;;;;;16.00;2.72;;;37.90;21.00;;;;;;5048487;28;20080;-59
2023/08/04 03:01:12;;;;;;;18.33;3.38;;;37.80;21.00;;;;;;5050984;28;20556;-62
2023/08/04 03:03:39;;;;;;;9.10;2.60;;;37.60;21.00;;;;;;5052684;28;20110;-56
2023/08/04 03:06:05;;;;;;;21.38;2.97;;;37.50;21.70;;;;;;5051535;28;20162;-58
2023/08/04 03:08:32;;;;;;;27.23;3.25;;;37.50;21.30;;;;;;5050166;28;20084;-60
2023/08/04 03:10:59;;;;;;;13.68;2.90;;;37.30;21.60;;;;;;5050772;28;20153;-62
2023/08/04 03:13:25;;;;;;;11.68;2.80;;;37.30;21.70;;;;;;5069655;28;20078;-58
2023/08/04 03:16:00;;;;;;;20.70;3.25;;;37.20;21.90;;;;;;5054806;28;20176;-62
2023/08/04 03:18:27;;;;;;;18.50;3.25;;;37.10;21.90;;;;;;5056530;28;20083;-63
2023/08/04 03:20:54;;;;;;;13.02;2.80;;;37.00;22.10;;;;;;5051841;28;20163;-58
2023/08/04 03:23:21;;;;;;;23.85;3.05;;;36.80;21.70;;;;;;5050590;28;20076;-59
2023/08/04 03:25:48;;;;;;;15.98;2.70;;;36.80;21.80;;;;;;5051909;28;20088;-58
2023/08/04 03:28:15;;;;;;;20.95;3.13;;;36.70;21.70;;;;;;5051066;28;20491;-61
2023/08/04 03:30:41;;;;;;;19.00;3.08;;;36.60;21.70;;;;;;5052310;28;20084;-61
2023/08/04 03:33:08;;;;;;;14.10;3.58;;;36.60;22.00;;;;;;5055377;28;20084;-59
2023/08/04 03:35:34;;;;;;;15.93;3.13;;;36.50;21.70;;;;;;5057297;28;20432;-59
2023/08/04 03:38:05;;;;;;;19.27;3.28;;;36.50;21.90;;;;;;5057648;28;20079;-60
2023/08/04 03:40:31;;;;;;;17.02;2.97;;;36.40;21.60;;;;;;5054438;28;20165;-59
2023/08/04 03:42:57;;;;;;;15.50;2.80;;;36.30;21.80;;;;;;5052544;28;20112;-62
2023/08/04 03:45:24;;;;;;;16.55;2.80;;;36.30;20.90;;;;;;5053485;28;20080;-59
2023/08/04 03:47:50;;;;;;;22.67;3.00;;;36.20;20.80;;;;;;5054949;28;20100;-59
2023/08/04 03:50:17;;;;;;;20.92;3.20;;;36.20;20.60;;;;;;5054457;28;20145;-63
2023/08/04 03:52:43;;;;;;;14.75;2.92;;;36.10;20.60;;;;;;5058345;28;20607;-59
2023/08/04 03:55:09;;;;;;;26.05;3.60;;;36.10;20.50;;;;;;5063256;28;20092;-59
2023/08/04 03:57:36;;;;;;;30.52;3.00;;;36.00;20.40;;;;;;5058022;28;20091;-60
2023/08/04 04:00:03;;;;;;;17.38;3.10;;;35.90;20.50;;;;;;5054898;28;20076;-61
2023/08/04 04:02:30;;;;;;;14.63;3.25;;;35.80;19.90;;;;;;5055830;28;20109;-58
2023/08/04 04:04:56;;;;;;;13.45;2.70;;;35.80;20.10;;;;;;5058276;28;20078;-59
2023/08/04 04:07:22;;;;;;;13.50;3.10;;;35.80;20.00;;;;;;5051174;28;21216;-59
2023/08/04 04:09:49;;;;;;;20.35;3.47;;;35.70;19.50;;;;;;5055602;28;20830;-59
2023/08/04 04:12:15;;;;;;;12.40;3.58;;;35.70;19.90;;;;;;5055606;28;20076;-60
2023/08/04 04:14:41;;;;;;;9.55;2.90;;;35.60;19.80;;;;;;5055456;28;20085;-58
2023/08/04 04:17:09;;;;;;;12.13;2.80;;;35.60;19.60;;;;;;5055538;28;20123;-59
2023/08/04 04:19:35;;;;;;;13.77;3.15;;;35.50;19.30;;;;;;5057312;28;20087;-59
2023/08/04 04:22:01;;;;;;;13.23;3.78;;;35.50;19.50;;;;;;5057977;28;20115;-61
2023/08/04 04:24:28;;;;;;;9.38;3.30;;;35.40;19.50;;;;;;5056849;28;20076;-60
2023/08/04 04:26:54;;;;;;;8.95;3.55;;;35.40;20.50;;;;;;5056842;28;20570;-60
2023/08/04 04:29:20;;;;;;;15.48;3.15;;;35.30;20.40;;;;;;5053119;28;20084;-60
2023/08/04 04:31:47;;;;;;;18.02;4.50;;;35.20;21.30;;;;;;5053301;28;20085;-60
2023/08/04 04:34:14;;;;;;;7.90;3.35;;;35.10;21.20;;;;;;5052980;28;20103;-61
2023/08/04 04:36:40;;;;;;;11.75;3.00;;;35.00;21.60;;;;;;5053573;28;20125;-60
2023/08/04 04:39:07;;;;;;;13.05;2.72;;;35.00;22.20;;;;;;5053563;28;20175;-60
2023/08/04 04:41:34;;;;;;;11.18;2.63;;;34.90;22.00;;;;;;5060157;28;20110;-61
2023/08/04 04:44:02;;;;;;;11.55;2.97;;;34.80;22.80;;;;;;5060083;28;20542;-60
2023/08/04 04:46:28;;;;;;;11.90;2.85;;;34.70;22.60;;;;;;5059381;28;20179;-60
2023/08/04 04:48:55;;;;;;;5.57;2.85;;;34.60;23.20;;;;;;5057050;28;20538;-61
2023/08/04 04:51:21;;;;;;;9.82;3.25;;;34.50;22.50;;;;;;5053044;28;20116;-60
2023/08/04 04:53:48;;;;;;;10.13;3.30;;;34.40;22.20;;;;;;5053816;28;20562;-60
2023/08/04 04:56:14;;;;;;;8.95;2.92;;;34.30;22.70;;;;;;5053966;28;20113;-61
2023/08/04 04:58:41;;;;;;;12.95;3.00;;;34.20;22.60;;;;;;5053348;28;20112;-60
2023/08/04 05:01:08;;;;;;;12.15;3.35;;;34.10;23.10;;;;;;5058076;28;20581;-60
2023/08/04 05:03:36;;;;;;;11.95;3.60;;;34.10;23.50;;;;;;5055212;28;20084;-61
2023/08/04 05:06:02;;;;;;;10.38;3.70;;;34.00;23.60;;;;;;5053696;28;20091;-58
2023/08/04 05:08:28;;;;;;;12.27;3.28;;;34.00;23.60;;;;;;5058813;28;20076;-60
2023/08/04 05:10:55;;;;;;;8.70;2.83;;;33.90;23.40;;;;;;5052383;28;20145;-59
2023/08/04 05:13:21;;;;;;;7.32;3.25;;;33.80;23.30;;;;;;5054419;28;20084;-60
2023/08/04 05:15:48;;;;;;;7.93;3.60;;;33.70;23.50;;;;;;5053936;28;20104;-59
2023/08/04 05:18:15;;;;;;;14.88;3.60;;;33.60;22.70;;;;;;5053603;28;20130;-59
2023/08/04 05:20:47;;;;;;;12.25;3.38;;;33.50;23.00;;;;;;5056329;28;20509;-60
2023/08/04 05:23:14;;;;;;;10.27;3.08;;;33.50;22.90;;;;;;5056202;28;20453;-60
2023/08/04 05:25:40;;;;;;;7.82;2.83;;;33.50;23.20;;;;;;5054527;28;20085;-59
2023/08/04 05:28:27;;;;;;;10.63;2.90;;;33.40;22.70;;;;;;5058397;28;20553;-59
2023/08/04 05:30:56;;;;;;;15.68;3.88;;;33.30;22.40;;;;;;5056286;28;20558;-59
2023/08/04 05:33:24;;;;;;;13.00;3.78;;;33.30;22.90;;;;;;5051335;28;20089;-62
2023/08/04 05:35:51;;;;;;;11.32;3.50;;;33.30;22.80;;;;;;5057436;28;20155;-58
2023/08/04 05:38:17;;;;;;;10.05;2.90;;;33.20;23.20;;;;;;5053407;28;20099;-59
2023/08/04 05:40:45;;;;;;;12.75;3.38;;;33.20;23.20;;;;;;5058347;28;20558;-60
2023/08/04 05:43:13;;;;;;;9.30;2.83;;;33.20;23.60;;;;;;5053248;28;20077;-61
2023/08/04 05:45:42;;;;;;;9.70;3.42;;;33.10;23.20;;;;;;5056055;28;20083;-59
2023/08/04 05:48:09;;;;;;;13.27;3.20;;;33.00;23.40;;;;;;5050407;28;20081;-61
2023/08/04 05:50:36;;;;;;;10.18;2.90;;;33.00;22.90;;;;;;5060812;28;20088;-60
2023/08/04 05:53:03;;;;;;;22.63;3.47;;;33.00;22.40;;;;;;5056948;28;20530;-65
2023/08/04 05:55:30;;;;;;;8.40;2.42;;;33.00;22.70;;;;;;5056877;28;20229;-64
2023/08/04 05:57:56;;;;;;;50.92;5.65;;;33.20;21.80;;;;;;5052954;28;20170;-64
2023/08/04 06:00:24;;;;;;;12.30;2.67;;;33.40;22.00;;;;;;5051586;28;20476;-69
2023/08/04 06:02:50;;;;;;;12.98;2.53;;;33.40;21.50;;;;;;5056316;28;20448;-66
2023/08/04 06:05:17;;;;;;;50.53;5.68;;;33.50;21.20;;;;;;5054395;28;20126;-68
2023/08/04 06:07:43;;;;;;;37.70;3.92;;;33.70;22.50;;;;;;5052005;28;20087;-66
2023/08/04 06:10:10;;;;;;;34.85;4.22;;;33.90;22.10;;;;;;5056277;28;20553;-60
2023/08/04 06:12:37;;;;;;;7.20;2.47;;;33.80;21.10;;;;;;5053984;28;20161;-67
2023/08/04 06:15:04;;;;;;;10.85;2.17;;;33.80;20.60;;;;;;5060083;28;20081;-65
2023/08/04 06:17:32;;;;;;;8.05;2.30;;;33.70;20.50;;;;;;5058183;28;20076;-57
2023/08/04 06:19:58;;;;;;;14.85;2.50;;;34.10;20.30;;;;;;5055799;28;20151;-64
2023/08/04 06:22:24;;;;;;;8.15;2.33;;;33.90;21.00;;;;;;5052878;28;20080;-65
2023/08/04 06:24:51;;;;;;;5.78;2.15;;;33.90;19.90;;;;;;5052658;28;20076;-64
2023/08/04 06:27:18;;;;;;;8.43;2.10;;;34.00;20.10;;;;;;5054565;28;20083;-63
2023/08/04 06:29:44;;;;;;;9.15;2.03;;;33.80;20.10;;;;;;5050647;28;20083;-64
2023/08/04 06:32:10;;;;;;;11.27;2.22;;;33.70;21.20;;;;;;5050129;28;20091;-64
2023/08/04 06:34:37;;;;;;;11.10;2.17;;;33.60;23.10;;;;;;5051870;28;20565;-64
2023/08/04 06:37:03;;;;;;;6.47;2.17;;;33.40;21.70;;;;;;5051586;28;20153;-67
2023/08/04 06:39:30;;;;;;;11.05;2.30;;;33.30;21.20;;;;;;5051959;28;20465;-66
2023/08/04 06:41:56;;;;;;;5.53;2.10;;;33.30;20.60;;;;;;5051579;28;20072;-64
2023/08/04 06:44:22;;;;;;;5.45;2.40;;;33.20;21.20;;;;;;5057283;28;20454;-65
2023/08/04 06:46:49;;;;;;;7.72;2.30;;;33.20;19.60;;;;;;5056926;28;20075;-65
2023/08/04 06:49:15;;;;;;;6.63;2.28;;;33.20;19.70;;;;;;5056853;28;20095;-65
2023/08/04 06:51:42;;;;;;;6.38;2.35;;;33.10;19.50;;;;;;5050264;28;20569;-63
2023/08/04 06:54:08;;;;;;;7.07;2.25;;;33.00;19.70;;;;;;5054662;28;20080;-64
2023/08/04 06:56:34;;;;;;;7.32;2.38;;;32.90;19.80;;;;;;5058248;28;20104;-64
2023/08/04 06:59:01;;;;;;;5.35;2.28;;;32.90;19.50;;;;;;5055354;28;20088;-64
2023/08/04 07:01:27;;;;;;;6.75;2.00;;;32.80;19.70;;;;;;5050741;28;20104;-64
2023/08/04 07:03:54;;;;;;;3.83;1.90;;;32.70;19.40;;;;;;5051798;28;20087;-66
2023/08/04 07:06:20;;;;;;;9.23;1.85;;;32.70;19.20;;;;;;5055985;28;20084;-64
2023/08/04 07:08:47;;;;;;;7.88;1.83;;;32.70;19.10;;;;;;5054490;28;20081;-65
2023/08/04 07:11:18;;;;;;;5.35;1.75;;;32.60;19.10;;;;;;5056026;28;20083;-66
2023/08/04 07:13:45;;;;;;;5.18;1.60;;;32.60;18.40;;;;;;5058553;28;20087;-65
2023/08/04 07:16:11;;;;;;;5.00;1.85;;;32.60;19.00;;;;;;5056907;28;20517;-65
2023/08/04 07:18:38;;;;;;;8.68;2.00;;;32.60;20.20;;;;;;5053413;28;20093;-65
2023/08/04 07:21:13;;;;;;;3.85;1.80;;;32.60;19.50;;;;;;5051872;28;20068;-64
2023/08/04 07:23:40;;;;;;;7.03;1.77;;;32.50;19.60;;;;;;5053357;28;20087;-65
2023/08/04 07:26:08;;;;;;;6.60;1.70;;;32.50;19.60;;;;;;5060550;28;20090;-63
2023/08/04 07:28:35;;;;;;;8.25;2.03;;;32.40;19.70;;;;;;5059011;28;20248;-65
2023/08/04 07:31:09;;;;;;;5.80;1.67;;;32.30;19.90;;;;;;5058790;28;20481;-64
2023/08/04 07:33:36;;;;;;;6.78;1.67;;;32.30;20.40;;;;;;5057016;28;20080;-65
2023/08/04 07:36:03;;;;;;;4.72;1.80;;;32.30;19.90;;;;;;5055282;28;20573;-65
2023/08/04 07:38:31;;;;;;;6.68;1.80;;;32.20;20.40;;;;;;5055226;28;20081;-66
2023/08/04 07:40:58;;;;;;;4.05;1.70;;;32.10;20.40;;;;;;5060570;28;20423;-64
2023/08/04 07:43:25;;;;;;;8.13;1.80;;;32.00;20.60;;;;;;5062504;28;20554;-65
2023/08/04 07:45:53;;;;;;;7.53;1.88;;;31.90;20.30;;;;;;5061250;28;20174;-64
2023/08/04 07:48:20;;;;;;;15.15;2.05;;;31.80;19.70;;;;;;5058627;28;20470;-64
2023/08/04 07:50:48;;;;;;;4.47;1.75;;;31.80;21.00;;;;;;5055490;28;20090;-64
2023/08/04 07:53:14;;;;;;;6.78;2.03;;;31.70;20.90;;;;;;5057160;28;20249;-65
2023/08/04 07:55:41;;;;;;;9.02;2.03;;;31.70;20.60;;;;;;5059018;28;20186;-64
2023/08/04 07:58:08;;;;;;;9.13;2.17;;;31.70;20.40;;;;;;5058182;28;20172;-63
2023/08/04 08:00:35;;;;;;;3.65;1.40;;;31.60;20.90;;;;;;5061556;28;20161;-65
2023/08/04 08:03:02;;;;;;;3.75;1.40;;;31.70;20.70;;;;;;5060710;28;20070;-63
2023/08/04 08:05:29;;;;;;;7.95;1.52;;;31.60;21.30;;;;;;5062774;28;20080;-63
2023/08/04 08:07:55;;;;;;;4.68;1.88;;;31.60;21.30;;;;;;5060671;28;20075;-65
2023/08/04 08:10:21;;;;;;;15.73;2.13;;;31.60;20.30;;;;;;5056815;28;20119;-64
2023/08/04 08:12:48;;;;;;;5.72;1.63;;;31.50;20.50;;;;;;5052129;28;20096;-65
2023/08/04 08:15:14;;;;;;;3.35;1.27;;;31.40;20.00;;;;;;5057781;28;20088;-63
2023/08/04 08:17:41;;;;;;;9.55;2.25;;;31.40;20.70;;;;;;5063310;28;20076;-64
2023/08/04 08:20:07;;;;;;;7.57;2.50;;;31.20;20.50;;;;;;5060498;28;20072;-64
2023/08/04 08:22:34;;;;;;;12.65;2.13;;;31.20;20.20;;;;;;5052547;28;20085;-63
2023/08/04 08:25:00;;;;;;;8.00;1.98;;;31.10;20.10;;;;;;5059951;28;20077;-64
2023/08/04 08:27:27;;;;;;;4.93;1.80;;;30.90;20.00;;;;;;5057228;28;20087;-64
2023/08/04 08:29:55;;;;;;;5.18;1.35;;;30.90;20.30;;;;;;5066058;28;20089;-64
2023/08/04 08:32:22;;;;;;;3.50;1.77;;;30.80;20.40;;;;;;5053434;28;20093;-64
2023/08/04 08:34:49;;;;;;;5.90;1.60;;;30.70;20.90;;;;;;5061751;28;20084;-63
2023/08/04 08:37:15;;;;;;;5.25;1.40;;;30.70;21.10;;;;;;5055553;28;20119;-63
2023/08/04 08:39:41;;;;;;;3.85;1.45;;;30.60;21.50;;;;;;5058460;28;20164;-64
2023/08/04 08:42:08;;;;;;;5.25;1.63;;;30.60;21.20;;;;;;5059150;28;20086;-65
2023/08/04 08:44:34;;;;;;;3.28;1.33;;;30.50;21.00;;;;;;5057582;28;20129;-63
2023/08/04 08:47:00;;;;;;;4.22;1.58;;;30.50;21.00;;;;;;5060809;28;20088;-64
2023/08/04 08:49:30;;;;;;;5.93;1.63;;;30.50;22.20;;;;;;5060399;28;20097;-64
2023/08/04 08:51:58;;;;;;;8.30;1.70;;;30.40;22.40;;;;;;5059563;28;20085;-64
2023/08/04 08:54:25;;;;;;;6.32;1.48;;;30.30;21.80;;;;;;5061470;28;20093;-63
2023/08/04 08:56:51;;;;;;;6.25;1.55;;;30.20;21.30;;;;;;5060131;28;20634;-64
2023/08/04 08:59:18;;;;;;;3.45;1.20;;;30.20;20.90;;;;;;5054617;28;20135;-64
2023/08/04 09:01:45;;;;;;;4.25;1.40;;;30.20;22.10;;;;;;5059726;28;20116;-64
2023/08/04 09:04:11;;;;;;;4.93;1.50;;;30.10;21.80;;;;;;5056005;28;20493;-63
2023/08/04 09:06:38;;;;;;;6.80;1.45;;;30.00;22.10;;;;;;5056871;28;20092;-64
2023/08/04 09:09:05;;;;;;;6.20;1.80;;;29.90;22.50;;;;;;5057040;28;20081;-63
2023/08/04 09:11:32;;;;;;;8.35;1.75;;;29.90;22.10;;;;;;5052341;28;20607;-63
2023/08/04 09:14:02;;;;;;;5.45;1.55;;;29.80;22.30;;;;;;5053235;28;20587;-63
2023/08/04 09:16:36;;;;;;;5.80;1.40;;;29.80;21.30;;;;;;5061675;28;20134;-63
2023/08/04 09:19:09;;;;;;;6.50;1.90;;;29.70;23.00;;;;;;5057501;28;20088;-64
2023/08/04 09:21:37;;;;;;;8.52;2.13;;;29.70;22.20;;;;;;5055336;28;20539;-64
2023/08/04 09:24:07;;;;;;;3.47;1.50;;;29.70;22.80;;;;;;5052376;28;20113;-63
2023/08/04 09:26:45;;;;;;;6.13;1.90;;;29.60;21.50;;;;;;5056752;28;20170;-63
2023/08/04 09:29:13;;;;;;;5.82;1.88;;;29.50;21.80;;;;;;5054311;28;20254;-63
2023/08/04 09:31:48;;;;;;;6.55;1.75;;;29.40;22.20;;;;;;5051089;28;20091;-63
2023/08/04 09:34:14;;;;;;;4.68;1.77;;;29.40;22.20;;;;;;5050194;28;20254;-64
2023/08/04 09:36:48;;;;;;;2.95;1.40;;;29.20;22.40;;;;;;5057064;28;20233;-64
2023/08/04 09:39:15;;;;;;;7.03;1.83;;;29.20;22.50;;;;;;5054764;28;20162;-64
2023/08/04 09:41:46;;;;;;;7.25;1.80;;;29.30;23.30;;;;;;5054038;28;20073;-64
2023/08/04 09:44:14;;;;;;;5.10;1.50;;;29.20;23.00;;;;;;5052060;28;20085;-64
2023/08/04 09:46:47;;;;;;;3.25;1.45;;;29.00;21.80;;;;;;5056258;28;20126;-64
2023/08/04 09:49:14;;;;;;;3.17;1.30;;;29.10;21.70;;;;;;5050972;28;20081;-64
2023/08/04 09:51:43;;;;;;;5.07;1.15;;;29.10;23.40;;;;;;5050815;28;20138;-63
2023/08/04 09:54:10;;;;;;;2.50;1.33;;;29.10;22.20;;;;;;5051195;28;20113;-63
2023/08/04 09:56:37;;;;;;;1.55;1.10;;;29.00;21.30;;;;;;5053179;28;20093;-63
2023/08/04 09:59:04;;;;;;;2.20;1.00;;;28.90;21.20;;;;;;5052730;28;20518;-62
2023/08/04 10:01:31;;;;;;;5.10;1.10;;;28.80;21.10;;;;;;5054259;28;20163;-62
2023/08/04 10:03:58;;;;;;;3.88;1.25;;;28.70;21.00;;;;;;5054320;28;20127;-62
2023/08/04 10:06:27;;;;;;;2.40;1.20;;;28.70;21.30;;;;;;5051013;28;20101;-63
2023/08/04 10:08:55;;;;;;;1.70;1.10;;;28.70;21.80;;;;;;5049976;28;20096;-63
2023/08/04 10:11:23;;;;;;;3.03;1.13;;;28.60;22.10;;;;;;5051141;28;20134;-63
2023/08/04 10:13:53;;;;;;;6.72;1.40;;;28.50;20.80;;;;;;5051124;28;20124;-63
2023/08/04 10:16:25;;;;;;;2.53;0.90;;;28.50;20.50;;;;;;5049211;28;20184;-63
2023/08/04 10:18:53;;;;;;;6.65;1.30;;;28.60;20.40;;;;;;5051340;28;20073;-65
2023/08/04 10:21:27;;;;;;;3.38;1.08;;;28.60;21.40;;;;;;5050064;28;20551;-62
2023/08/04 10:23:54;;;;;;;2.92;0.80;;;28.60;19.90;;;;;;5058030;28;20438;-64
2023/08/04 10:26:21;;;;;;;2.47;0.90;;;28.60;20.20;;;;;;5059999;28;20089;-64
2023/08/04 10:29:02;;;;;;;1.98;1.00;;;28.60;20.30;;;;;;5049510;28;20081;-63
2023/08/04 10:31:47;;;;;;;4.57;1.10;;;28.60;20.80;;;;;;5048693;28;20554;-62
2023/08/04 10:34:26;;;;;;;1.25;1.00;;;28.60;20.40;;;;;;5052631;28;20506;-64
2023/08/04 10:36:58;;;;;;;3.80;1.23;;;28.60;20.00;;;;;;5050558;28;20097;-63
2023/08/04 10:39:37;;;;;;;2.17;0.93;;;28.60;20.60;;;;;;5051059;28;20181;-63
2023/08/04 10:42:14;;;;;;;3.55;0.90;;;28.50;20.00;;;;;;5051171;28;20073;-62
2023/08/04 10:44:49;;;;;;;1.13;0.82;;;28.40;19.80;;;;;;5052931;28;20160;-62
2023/08/04 10:47:29;;;;;;;1.90;1.00;;;28.40;20.00;;;;;;5050867;28;20542;-63
2023/08/04 10:49:57;;;;;;;7.72;1.10;;;28.30;21.30;;;;;;5051575;28;20084;-64
2023/08/04 10:52:25;;;;;;;3.08;0.93;;;28.20;20.40;;;;;;5056036;28;20080;-64
2023/08/04 10:54:53;;;;;;;10.52;1.52;;;28.30;21.00;;;;;;5054889;28;20096;-64
2023/08/04 10:57:23;;;;;;;2.35;1.25;;;28.30;21.60;;;;;;5055782;28;20637;-64
2023/08/04 10:59:50;;;;;;;6.40;1.17;;;28.20;21.40;;;;;;5051922;28;20165;-64
2023/08/04 11:02:21;;;;;;;4.90;1.10;;;28.10;21.70;;;;;;5052764;28;20176;-63
2023/08/04 11:04:48;;;;;;;2.05;0.98;;;28.10;21.50;;;;;;5051746;28;20084;-64
2023/08/04 11:07:15;;;;;;;3.92;1.13;;;28.00;22.30;;;;;;5054018;28;20151;-62
2023/08/04 11:09:44;;;;;;;8.63;1.95;;;28.00;22.50;;;;;;5048639;28;20120;-63
2023/08/04 11:12:10;;;;;;;9.93;1.73;;;27.90;24.70;;;;;;5050987;28;20574;-63
2023/08/04 11:14:37;;;;;;;6.47;1.60;;;27.80;24.10;;;;;;5050290;28;20094;-63
2023/08/04 11:17:15;;;;;;;11.23;1.58;;;27.70;25.30;;;;;;5049909;28;20093;-63
2023/08/04 11:19:46;;;;;;;5.50;1.42;;;27.70;27.00;;;;;;5051027;28;20130;-63
2023/08/04 11:22:17;;;;;;;9.13;1.65;;;27.60;25.70;;;;;;5052667;28;20168;-63
2023/08/04 11:24:44;;;;;;;6.25;1.60;;;27.60;25.80;;;;;;5054277;28;20579;-62
2023/08/04 11:27:15;;;;;;;2.35;1.20;;;27.50;25.90;;;;;;5052447;28;20096;-63
2023/08/04 11:29:42;;;;;;;5.53;1.30;;;27.50;25.60;;;;;;5050668;28;20081;-63
2023/08/04 11:32:23;;;;;;;3.90;1.40;;;27.40;24.40;;;;;;5050955;28;20105;-64
2023/08/04 11:34:49;;;;;;;2.97;1.60;;;27.40;24.90;;;;;;5051145;28;20438;-63
2023/08/04 11:37:16;;;;;;;3.97;1.50;;;27.20;24.60;;;;;;5047568;28;20106;-63
2023/08/04 11:39:43;;;;;;;5.07;1.67;;;27.20;25.10;;;;;;5050717;28;20081;-63
2023/08/04 11:42:13;;;;;;;5.32;1.60;;;27.20;24.80;;;;;;5052619;28;20085;-63
2023/08/04 11:44:43;;;;;;;2.13;1.42;;;27.20;24.40;;;;;;5051905;28;20081;-62
2023/08/04 11:47:11;;;;;;;3.58;1.25;;;27.10;24.00;;;;;;5050951;28;20086;-63
2023/08/04 11:49:40;;;;;;;6.60;1.63;;;27.10;24.20;;;;;;5051545;28;20081;-63
2023/08/04 11:52:11;;;;;;;6.22;1.73;;;27.10;25.60;;;;;;5050617;28;20104;-61
2023/08/04 11:54:59;;;;;;;6.03;1.50;;;27.10;25.00;;;;;;5051581;28;20550;-64
2023/08/04 11:57:26;;;;;;;7.05;2.20;;;27.10;25.20;;;;;;5053241;28;20105;-63
2023/08/04 11:59:53;;;;;;;6.00;2.00;;;26.90;25.60;;;;;;5052431;28;20080;-63
2023/08/04 12:02:19;;;;;;;5.18;1.70;;;26.80;26.30;;;;;;5052060;28;20192;-62
2023/08/04 12:04:46;;;;;;;4.53;1.70;;;26.70;27.10;;;;;;5051966;28;20112;-62
2023/08/04 12:07:12;;;;;;;6.80;2.00;;;26.70;27.00;;;;;;5051473;28;20096;-63
2023/08/04 12:09:39;;;;;;;6.88;1.60;;;26.60;26.40;;;;;;5051799;28;20121;-63
2023/08/04 12:12:06;;;;;;;7.13;1.90;;;26.60;26.10;;;;;;5055549;28;20565;-63
2023/08/04 12:14:32;;;;;;;8.32;1.63;;;26.50;25.40;;;;;;5055620;28;20097;-62
2023/08/04 12:17:05;;;;;;;5.32;1.60;;;26.50;25.40;;;;;;5055706;28;20084;-63
2023/08/04 12:19:33;;;;;;;6.40;1.90;;;26.50;25.80;;;;;;5056713;28;20187;-64
2023/08/04 12:22:06;;;;;;;7.38;2.08;;;26.60;26.00;;;;;;5059030;28;20172;-62
2023/08/04 12:24:33;;;;;;;7.05;2.20;;;26.50;25.90;;;;;;5059811;28;20089;-62
2023/08/04 12:26:59;;;;;;;7.78;1.80;;;26.40;25.60;;;;;;5063346;28;20097;-62
2023/08/04 12:29:26;;;;;;;5.70;1.70;;;26.40;26.10;;;;;;5055774;28;20168;-64
2023/08/04 12:31:52;;;;;;;12.38;1.95;;;26.30;26.30;;;;;;5056848;28;20089;-63
2023/08/04 12:34:18;;;;;;;10.77;1.60;;;26.30;26.60;;;;;;5057069;28;20080;-61
2023/08/04 12:36:45;;;;;;;5.03;1.92;;;26.20;26.10;;;;;;5053225;28;20085;-63
2023/08/04 12:39:13;;;;;;;10.70;2.17;;;26.20;27.00;;;;;;5054190;28;20180;-63
2023/08/04 12:41:41;;;;;;;14.10;2.40;;;26.20;26.30;;;;;;5055763;28;20081;-63
2023/08/04 12:44:09;;;;;;;19.55;2.60;;;26.10;26.20;;;;;;5054721;28;20908;-64
2023/08/04 12:46:35;;;;;;;6.65;1.77;;;26.20;26.50;;;;;;5054491;28;20120;-64